KRNM

Ramona Airport

Ramona, California, USA
METAR KRNM 150053Z 27008KT 10SM CLR 26/17 A2987 RMK AO2 SLP102 T02560172
Observed Flight Rules
Aug-15 @ 00:53 UTC (13 minutes ago) Visual Flight Rules
Wind Visibility Clouds
270° at 8 knots 10 miles
  • Clear skies
Temperatures Readings
Current 26°C / 79°F
Dewpoint 17°C / 63°F
Humidity 58%
Altimeter 29.87" Hg
Pressure 1010.2 hPa
Elevation 427
METAR KRNM 150053Z 27008KT 10SM CLR 26/17 A2987 RMK AO2 SLP102 T02560172
Observed Flight Rules
Aug-15 @ 00:53 UTC
(13 minutes ago)
VFR
Wind Visibility
270° at 8 knots 10 miles
Clouds
  • Clear skies
Temperature Dewpoint
26°C / 79°F 17°C / 63°F
Humidity Altimeter Pressure
58% 29.87" Hg 1010.2 hPa